createdAt,value
2023-11-25T00:00:37.296Z,61.86
2023-11-25T00:02:14.920Z,59.30
2023-11-25T00:03:48.609Z,57.15
2023-11-25T00:05:20.902Z,57.56
2023-11-25T00:06:50.598Z,58.94
2023-11-25T00:08:27.515Z,60.96
2023-11-25T00:09:49.599Z,62.91
2023-11-25T00:11:28.212Z,64.90
2023-11-25T00:12:57.389Z,64.17
2023-11-25T00:14:21.397Z,61.97
2023-11-25T00:15:57.576Z,59.57
2023-11-25T00:17:32.498Z,57.19
2023-11-25T00:18:54.384Z,57.22
2023-11-25T00:20:35.399Z,58.67
2023-11-25T00:21:59.434Z,60.63
2023-11-25T00:23:23.919Z,62.42
2023-11-25T00:24:48.771Z,64.71
2023-11-25T00:26:13.476Z,65.20
2023-11-25T00:27:39.169Z,63.40
2023-11-25T00:29:05.798Z,61.30
2023-11-25T00:30:40.125Z,59.24
2023-11-25T00:32:04.000Z,57.15
2023-11-25T00:33:29.463Z,57.54
2023-11-25T00:34:51.553Z,59.07
2023-11-25T00:36:15.907Z,60.60
2023-11-25T00:37:37.804Z,62.32
2023-11-25T00:39:10.386Z,64.58
2023-11-25T00:40:33.097Z,65.04
2023-11-25T00:41:56.838Z,63.55
2023-11-25T00:43:18.991Z,61.34
2023-11-25T00:44:50.389Z,59.32
2023-11-25T00:46:12.622Z,57.21
2023-11-25T00:47:45.335Z,57.41
2023-11-25T00:49:09.890Z,58.90
2023-11-25T00:50:43.612Z,60.56
2023-11-25T00:52:07.813Z,62.44
2023-11-25T00:53:32.391Z,64.69
2023-11-25T00:54:56.514Z,65.07
2023-11-25T00:56:26.371Z,63.39
2023-11-25T00:57:50.651Z,61.01
2023-11-25T00:59:26.525Z,58.79
2023-11-25T01:00:48.915Z,57.20
2023-11-25T01:02:15.564Z,57.61
2023-11-25T01:03:39.813Z,59.15
2023-11-25T01:05:02.049Z,60.96
2023-11-25T01:06:24.223Z,62.93
2023-11-25T01:07:46.355Z,65.13
2023-11-25T01:09:09.118Z,65.34
2023-11-25T01:10:41.394Z,63.56
2023-11-25T01:12:17.110Z,61.01
2023-11-25T01:13:41.531Z,58.81
2023-11-25T01:15:05.886Z,57.34
2023-11-25T01:16:38.464Z,57.99
2023-11-25T01:18:00.495Z,59.72
2023-11-25T01:19:24.878Z,61.34
2023-11-25T01:20:48.932Z,63.19
2023-11-25T01:22:13.087Z,65.39
2023-11-25T01:23:35.078Z,64.93
2023-11-25T01:24:57.463Z,63.06
2023-11-25T01:26:19.371Z,60.69
2023-11-25T01:27:53.334Z,58.79
2023-11-25T01:29:19.751Z,57.01
2023-11-25T01:30:42.066Z,57.55
2023-11-25T01:32:07.002Z,59.25
2023-11-25T01:33:38.575Z,61.22
2023-11-25T01:35:13.258Z,63.57
2023-11-25T01:36:38.510Z,65.84
2023-11-25T01:38:11.534Z,64.93
2023-11-25T01:39:33.726Z,62.51
2023-11-25T01:40:57.537Z,60.39
2023-11-25T01:42:29.264Z,58.30
2023-11-25T01:43:51.593Z,57.20
2023-11-25T01:45:27.436Z,58.13
2023-11-25T01:47:00.780Z,60.28
2023-11-25T01:48:32.726Z,62.17
2023-11-25T01:49:54.293Z,64.46
2023-11-25T01:51:16.160Z,65.54
2023-11-25T01:52:54.332Z,63.99
2023-11-25T01:54:16.615Z,61.59
2023-11-25T01:55:50.172Z,58.95
2023-11-25T01:57:14.555Z,56.72
2023-11-25T01:58:36.932Z,57.15
2023-11-25T02:00:01.247Z,58.49
2023-11-25T02:01:25.526Z,60.13
2023-11-25T02:02:50.639Z,61.81
2023-11-25T02:04:12.785Z,63.83
2023-11-25T02:05:44.592Z,65.29
2023-11-25T02:07:16.098Z,63.80
2023-11-25T02:08:46.005Z,61.43
2023-11-25T02:10:08.116Z,59.04
2023-11-25T02:11:30.697Z,56.97
2023-11-25T02:12:56.932Z,57.00
2023-11-25T02:14:21.117Z,58.66
2023-11-25T02:15:43.075Z,60.40
2023-11-25T02:17:05.869Z,62.24
2023-11-25T02:18:30.725Z,64.47
2023-11-25T02:19:55.161Z,65.23
2023-11-25T02:21:24.321Z,63.35
2023-11-25T02:22:51.023Z,61.15
2023-11-25T02:24:13.463Z,58.92
2023-11-25T02:25:35.276Z,56.90
2023-11-25T02:26:58.205Z,57.11
2023-11-25T02:28:27.981Z,58.41
2023-11-25T02:29:50.896Z,59.90
2023-11-25T02:31:13.182Z,61.48
2023-11-25T02:32:35.700Z,63.29
2023-11-25T02:33:57.485Z,65.35
2023-11-25T02:35:28.725Z,64.68
2023-11-25T02:37:03.178Z,62.03
2023-11-25T02:38:25.686Z,59.80
2023-11-25T02:39:47.442Z,57.53
2023-11-25T02:41:16.402Z,56.53
2023-11-25T02:42:38.931Z,57.64
2023-11-25T02:44:05.182Z,59.22
2023-11-25T02:45:38.756Z,61.08
2023-11-25T02:47:03.638Z,62.67
2023-11-25T02:48:26.463Z,64.94
2023-11-25T02:49:50.536Z,65.10
2023-11-25T02:51:12.795Z,63.31
2023-11-25T02:52:46.431Z,60.55
2023-11-25T02:54:10.659Z,58.05
2023-11-25T02:55:35.103Z,56.84
2023-11-25T02:56:56.704Z,57.43
2023-11-25T02:58:20.660Z,58.86
2023-11-25T02:59:43.818Z,60.44
2023-11-25T03:01:10.163Z,62.00
2023-11-25T03:02:32.570Z,64.02
2023-11-25T03:04:06.304Z,64.99
2023-11-25T03:05:38.405Z,63.04
2023-11-25T03:07:05.695Z,60.48
2023-11-25T03:08:35.144Z,58.00
2023-11-25T03:09:59.171Z,56.62
2023-11-25T03:11:22.134Z,57.40
2023-11-25T03:12:50.134Z,58.86
2023-11-25T03:14:13.032Z,60.63
2023-11-25T03:15:45.104Z,62.38
2023-11-25T03:17:06.540Z,64.48
2023-11-25T03:18:30.447Z,65.08
2023-11-25T03:19:52.516Z,63.66
2023-11-25T03:21:14.801Z,61.32
2023-11-25T03:22:48.432Z,58.77
2023-11-25T03:24:15.090Z,56.60
2023-11-25T03:25:40.121Z,56.74
2023-11-25T03:27:03.381Z,58.01
2023-11-25T03:28:26.502Z,59.70
2023-11-25T03:29:51.210Z,61.39
2023-11-25T03:31:13.501Z,63.22
2023-11-25T03:32:36.185Z,65.02
2023-11-25T03:33:58.217Z,64.45
2023-11-25T03:35:20.071Z,62.24
2023-11-25T03:36:44.310Z,59.70
2023-11-25T03:38:09.999Z,57.30
2023-11-25T03:39:32.286Z,56.45
2023-11-25T03:41:02.561Z,57.42
2023-11-25T03:42:26.744Z,59.11
2023-11-25T03:44:02.298Z,60.94
2023-11-25T03:45:24.533Z,62.51
2023-11-25T03:46:46.999Z,64.62
2023-11-25T03:48:16.669Z,64.94
2023-11-25T03:49:38.947Z,62.81
2023-11-25T03:51:00.539Z,60.55
2023-11-25T03:52:23.071Z,58.22
2023-11-25T03:53:46.409Z,56.29
2023-11-25T03:55:08.340Z,56.92
2023-11-25T03:56:31.074Z,58.62
2023-11-25T03:57:52.884Z,60.42
2023-11-25T03:59:14.770Z,62.16
2023-11-25T04:00:48.542Z,64.63
2023-11-25T04:02:10.520Z,65.23
2023-11-25T04:03:35.707Z,63.64
2023-11-25T04:04:58.006Z,61.25
2023-11-25T04:06:20.211Z,59.05
2023-11-25T04:07:42.793Z,56.98
2023-11-25T04:09:06.696Z,56.80
2023-11-25T04:10:29.128Z,58.13
2023-11-25T04:12:07.554Z,60.05
2023-11-25T04:13:30.475Z,62.01
2023-11-25T04:14:52.404Z,64.16
2023-11-25T04:16:14.470Z,65.24
2023-11-25T04:17:39.896Z,63.90
2023-11-25T04:19:09.332Z,61.58
2023-11-25T04:20:34.619Z,59.56
2023-11-25T04:22:01.044Z,57.23
2023-11-25T04:23:33.242Z,57.00
2023-11-25T04:24:55.206Z,58.33
2023-11-25T04:26:17.101Z,60.11
2023-11-25T04:27:48.005Z,62.11
2023-11-25T04:29:10.281Z,64.77
2023-11-25T04:30:40.043Z,65.49
2023-11-25T04:32:04.313Z,64.21
2023-11-25T04:33:26.428Z,61.93
2023-11-25T04:34:50.496Z,60.01
2023-11-25T04:36:13.896Z,58.14
2023-11-25T04:37:36.912Z,57.13
2023-11-25T04:39:00.290Z,58.08
2023-11-25T04:40:22.128Z,59.75
2023-11-25T04:41:44.080Z,61.44
2023-11-25T04:43:13.060Z,63.58
2023-11-25T04:44:35.279Z,65.74
2023-11-25T04:46:04.350Z,65.10
2023-11-25T04:47:27.919Z,63.03
2023-11-25T04:48:50.146Z,61.03
2023-11-25T04:50:13.314Z,59.07
2023-11-25T04:51:37.689Z,57.30
2023-11-25T04:53:00.912Z,57.64
2023-11-25T04:54:25.340Z,59.05
2023-11-25T04:55:49.666Z,61.10
2023-11-25T04:57:12.469Z,63.11
2023-11-25T04:58:36.988Z,65.46
2023-11-25T05:00:00.890Z,65.51
2023-11-25T05:01:23.065Z,63.83
2023-11-25T05:02:45.676Z,61.70
2023-11-25T05:04:08.630Z,59.81
2023-11-25T05:05:33.565Z,57.84
2023-11-25T05:06:55.768Z,57.58
2023-11-25T05:08:32.116Z,58.92
2023-11-25T05:10:03.619Z,60.97
2023-11-25T05:11:27.765Z,63.07
2023-11-25T05:12:56.724Z,65.56
2023-11-25T05:14:18.834Z,65.34
2023-11-25T05:15:48.541Z,63.50
2023-11-25T05:17:18.068Z,61.13
2023-11-25T05:18:40.167Z,59.38
2023-11-25T05:20:10.400Z,57.47
2023-11-25T05:21:33.188Z,57.54
2023-11-25T05:23:08.915Z,59.01
2023-11-25T05:24:31.531Z,61.14
2023-11-25T05:25:56.024Z,63.16
2023-11-25T05:27:27.488Z,65.71
2023-11-25T05:29:00.881Z,65.14
2023-11-25T05:30:30.420Z,63.24
2023-11-25T05:31:52.179Z,61.05
2023-11-25T05:33:16.724Z,59.32
2023-11-25T05:34:40.834Z,57.47
2023-11-25T05:36:17.565Z,57.60
2023-11-25T05:37:41.965Z,59.23
2023-11-25T05:39:07.892Z,61.10
2023-11-25T05:40:31.586Z,63.17
2023-11-25T05:41:53.220Z,65.49
2023-11-25T05:43:17.728Z,65.37
2023-11-25T05:44:42.384Z,63.44
2023-11-25T05:46:07.164Z,61.34
2023-11-25T05:47:29.576Z,59.59
2023-11-25T05:48:51.405Z,57.56
2023-11-25T05:50:21.876Z,57.14
2023-11-25T05:51:58.210Z,58.54
2023-11-25T05:53:21.974Z,60.61
2023-11-25T05:54:58.677Z,62.61
2023-11-25T05:56:26.735Z,65.27
2023-11-25T05:57:51.265Z,65.49
2023-11-25T05:59:15.876Z,63.73
2023-11-25T06:00:41.114Z,61.49
2023-11-25T06:02:14.954Z,59.37
2023-11-25T06:03:44.507Z,57.24
2023-11-25T06:05:06.389Z,57.52
2023-11-25T06:06:28.996Z,59.06
2023-11-25T06:07:51.440Z,60.82
2023-11-25T06:09:20.558Z,62.64
2023-11-25T06:10:55.313Z,65.36
2023-11-25T06:12:29.628Z,65.05
2023-11-25T06:13:51.635Z,63.06
2023-11-25T06:15:16.796Z,60.83
2023-11-25T06:16:42.863Z,58.76
2023-11-25T06:18:04.989Z,57.05
2023-11-25T06:19:34.564Z,57.60
2023-11-25T06:20:56.356Z,59.23
2023-11-25T06:22:30.060Z,60.97
2023-11-25T06:23:52.052Z,63.21
2023-11-25T06:25:15.144Z,65.32
2023-11-25T06:26:51.192Z,64.86
2023-11-25T06:28:15.453Z,62.78
2023-11-25T06:29:40.805Z,60.50
2023-11-25T06:31:05.427Z,58.51
2023-11-25T06:32:30.453Z,56.81
2023-11-25T06:33:53.084Z,57.41
2023-11-25T06:35:17.326Z,59.13
2023-11-25T06:36:39.282Z,60.95
2023-11-25T06:38:13.034Z,63.07
2023-11-25T06:39:38.010Z,65.21
2023-11-25T06:40:59.669Z,65.01
2023-11-25T06:42:23.380Z,62.92
2023-11-25T06:43:57.087Z,60.78
2023-11-25T06:45:31.068Z,58.17
2023-11-25T06:46:53.301Z,57.04
2023-11-25T06:48:17.201Z,57.78
2023-11-25T06:49:46.291Z,59.22
2023-11-25T06:51:08.141Z,61.07
2023-11-25T06:52:30.473Z,62.85
2023-11-25T06:54:06.919Z,65.07
2023-11-25T06:55:29.437Z,64.86
2023-11-25T06:56:53.464Z,62.87
2023-11-25T06:58:15.570Z,60.59
2023-11-25T06:59:40.317Z,58.15
2023-11-25T07:01:05.788Z,56.45
2023-11-25T07:02:52.554Z,57.22
2023-11-25T07:04:20.077Z,58.87
2023-11-25T07:05:43.049Z,60.65
2023-11-25T07:07:04.892Z,62.41
2023-11-25T07:08:34.170Z,64.64
2023-11-25T07:10:15.698Z,64.75
2023-11-25T07:12:04.167Z,62.26
2023-11-25T07:13:29.400Z,59.60
2023-11-25T07:14:53.940Z,57.14
2023-11-25T07:16:35.088Z,56.60
2023-11-25T07:17:57.242Z,58.02
2023-11-25T07:19:20.372Z,59.76
2023-11-25T07:20:51.374Z,61.76
2023-11-25T07:22:33.497Z,64.31
2023-11-25T07:23:57.496Z,65.56
2023-11-25T07:25:21.782Z,64.19
2023-11-25T07:26:55.739Z,61.80
2023-11-25T07:28:17.886Z,59.47
2023-11-25T07:29:59.097Z,57.15
2023-11-25T07:31:21.099Z,57.04
2023-11-25T07:32:55.059Z,58.55
2023-11-25T07:34:17.287Z,60.23
2023-11-25T07:35:39.893Z,61.91
2023-11-25T07:37:03.818Z,63.93
2023-11-25T07:38:26.307Z,65.28
2023-11-25T07:39:55.870Z,64.03
2023-11-25T07:41:20.893Z,61.46
2023-11-25T07:42:58.671Z,59.13
2023-11-25T07:44:32.218Z,56.76
2023-11-25T07:45:56.520Z,56.96
2023-11-25T07:47:18.581Z,58.54
2023-11-25T07:48:43.072Z,60.39
2023-11-25T07:50:04.902Z,62.05
2023-11-25T07:51:27.396Z,64.25
2023-11-25T07:52:49.320Z,65.60
2023-11-25T07:54:11.319Z,64.27
2023-11-25T07:55:45.141Z,61.63
2023-11-25T07:57:20.392Z,59.25
2023-11-25T07:58:42.726Z,56.86
2023-11-25T08:00:08.092Z,56.84
2023-11-25T08:01:37.432Z,58.20
2023-11-25T08:02:59.978Z,59.89
2023-11-25T08:04:26.397Z,61.64
2023-11-25T08:05:50.731Z,63.73
2023-11-25T08:07:19.726Z,65.12
2023-11-25T08:08:53.258Z,63.96
2023-11-25T08:10:22.812Z,60.71
2023-11-25T08:11:56.709Z,58.52
2023-11-25T08:13:30.612Z,56.35
2023-11-25T08:14:54.673Z,57.12
2023-11-25T08:16:16.671Z,58.39
2023-11-25T08:17:40.944Z,60.05
2023-11-25T08:19:02.812Z,61.79
2023-11-25T08:20:25.626Z,63.55
2023-11-25T08:21:47.562Z,65.01
2023-11-25T08:23:11.526Z,63.90
2023-11-25T08:24:41.437Z,61.56
2023-11-25T08:26:03.080Z,59.01
2023-11-25T08:27:40.129Z,56.61
2023-11-25T08:29:04.203Z,56.73
2023-11-25T08:30:26.359Z,57.94
2023-11-25T08:31:59.718Z,59.41
2023-11-25T08:33:22.160Z,61.19
2023-11-25T08:34:55.640Z,62.88
2023-11-25T08:36:19.299Z,64.63
2023-11-25T08:37:45.968Z,64.19
2023-11-25T08:39:09.825Z,62.10
2023-11-25T08:40:31.822Z,59.72
2023-11-25T08:41:56.188Z,57.34
2023-11-25T08:43:21.846Z,56.52
2023-11-25T08:44:55.387Z,57.59
2023-11-25T08:46:21.201Z,59.01
2023-11-25T08:47:50.838Z,60.91
2023-11-25T08:49:16.175Z,62.52
2023-11-25T08:50:40.753Z,64.46
2023-11-25T08:52:14.177Z,64.30
2023-11-25T08:53:38.669Z,62.05
2023-11-25T08:55:14.437Z,59.34
2023-11-25T08:56:38.893Z,56.62
2023-11-25T08:58:00.647Z,56.45
2023-11-25T08:59:25.359Z,57.82
2023-11-25T09:00:50.597Z,59.29
2023-11-25T09:02:14.224Z,60.69
2023-11-25T09:03:40.684Z,62.19
2023-11-25T09:05:09.285Z,64.17
2023-11-25T09:06:47.458Z,64.65
2023-11-25T09:08:22.976Z,62.15
2023-11-25T09:09:53.084Z,59.53
2023-11-25T09:11:14.566Z,56.49
2023-11-25T09:12:48.270Z,55.83
2023-11-25T09:14:21.825Z,57.03
2023-11-25T09:15:46.263Z,58.80
2023-11-25T09:17:20.731Z,60.27
2023-11-25T09:19:01.700Z,61.88
2023-11-25T09:20:31.454Z,63.81
2023-11-25T09:22:00.077Z,64.79
2023-11-25T09:23:22.823Z,63.08
2023-11-25T09:24:45.409Z,60.05
2023-11-25T09:26:22.651Z,57.04
2023-11-25T09:27:47.030Z,56.15
2023-11-25T09:29:08.740Z,57.13
2023-11-25T09:30:35.895Z,58.71
2023-11-25T09:31:58.799Z,60.18
2023-11-25T09:33:20.875Z,61.60
2023-11-25T09:34:43.136Z,63.31
2023-11-25T09:36:05.120Z,64.72
2023-11-25T09:37:27.317Z,63.41
2023-11-25T09:38:56.259Z,61.17
2023-11-25T09:40:32.544Z,58.41
2023-11-25T09:41:54.826Z,55.95
2023-11-25T09:43:21.794Z,56.25
2023-11-25T09:44:44.215Z,57.77
2023-11-25T09:46:08.807Z,59.19
2023-11-25T09:47:35.519Z,60.59
2023-11-25T09:48:59.177Z,62.09
2023-11-25T09:50:22.656Z,63.90
2023-11-25T09:51:44.847Z,64.63
2023-11-25T09:53:13.924Z,62.79
2023-11-25T09:54:36.764Z,60.18
2023-11-25T09:55:59.385Z,57.65
2023-11-25T09:57:33.831Z,56.22
2023-11-25T09:59:12.325Z,57.04
2023-11-25T10:00:42.796Z,58.69
2023-11-25T10:02:04.559Z,60.22
2023-11-25T10:03:27.463Z,61.83
2023-11-25T10:04:49.221Z,63.23
2023-11-25T10:06:13.308Z,64.82
2023-11-25T10:07:38.269Z,63.88
2023-11-25T10:09:11.033Z,61.19
2023-11-25T10:10:35.352Z,58.51
2023-11-25T10:11:57.786Z,56.62
2023-11-25T10:13:19.923Z,56.67
2023-11-25T10:14:41.914Z,57.78
2023-11-25T10:16:15.200Z,59.26
2023-11-25T10:17:49.591Z,60.96
2023-11-25T10:19:21.783Z,62.95
2023-11-25T10:20:44.153Z,64.95
2023-11-25T10:22:17.651Z,64.29
2023-11-25T10:23:42.208Z,61.84
2023-11-25T10:25:11.848Z,59.37
2023-11-25T10:26:36.861Z,57.09
2023-11-25T10:28:03.409Z,56.73
2023-11-25T10:29:33.211Z,57.86
2023-11-25T10:30:57.613Z,59.76
2023-11-25T10:32:21.861Z,61.42
2023-11-25T10:33:46.390Z,63.05
2023-11-25T10:35:20.310Z,65.22
2023-11-25T10:36:53.898Z,64.49
2023-11-25T10:38:31.035Z,61.93
2023-11-25T10:39:55.273Z,59.54
2023-11-25T10:41:25.037Z,56.85
2023-11-25T10:42:49.342Z,56.33
2023-11-25T10:44:11.071Z,57.59
2023-11-25T10:45:35.860Z,59.21
2023-11-25T10:46:59.218Z,60.86
2023-11-25T10:48:21.170Z,62.53
2023-11-25T10:49:52.103Z,64.75
2023-11-25T10:51:16.225Z,64.88
2023-11-25T10:52:40.089Z,62.85
2023-11-25T10:54:02.117Z,60.52
2023-11-25T10:55:27.074Z,58.23
2023-11-25T10:57:00.963Z,56.62
2023-11-25T10:58:33.324Z,57.36
2023-11-25T10:59:55.493Z,58.74
2023-11-25T11:01:17.553Z,60.29
2023-11-25T11:02:51.356Z,61.76
2023-11-25T11:04:22.957Z,64.00
2023-11-25T11:06:09.772Z,64.95
2023-11-25T11:07:34.751Z,62.97
2023-11-25T11:08:56.562Z,60.63
2023-11-25T11:10:28.863Z,57.94
2023-11-25T11:11:58.257Z,56.64
2023-11-25T11:13:20.228Z,57.39
2023-11-25T11:14:49.937Z,58.70
2023-11-25T11:16:13.971Z,60.42
2023-11-25T11:17:50.361Z,62.20
2023-11-25T11:19:14.991Z,64.16
2023-11-25T11:20:37.350Z,65.12
2023-11-25T11:21:59.021Z,63.58
2023-11-25T11:23:30.550Z,61.21
2023-11-25T11:24:59.737Z,58.53
2023-11-25T11:26:29.215Z,56.55
2023-11-25T11:28:02.585Z,56.89
2023-11-25T11:29:29.810Z,58.25
2023-11-25T11:30:56.155Z,59.88
2023-11-25T11:32:30.951Z,61.68
2023-11-25T11:33:52.764Z,63.52
2023-11-25T11:35:14.264Z,65.11
2023-11-25T11:36:38.454Z,64.25
2023-11-25T11:38:02.670Z,61.87
2023-11-25T11:39:24.720Z,59.54
2023-11-25T11:40:58.584Z,56.97
2023-11-25T11:42:20.510Z,56.46
2023-11-25T11:43:43.090Z,57.74
2023-11-25T11:45:12.921Z,59.19
2023-11-25T11:46:39.800Z,60.77
2023-11-25T11:48:05.167Z,62.08
2023-11-25T11:49:27.435Z,64.04
2023-11-25T11:50:56.861Z,64.73
2023-11-25T11:52:26.194Z,62.63
2023-11-25T11:53:48.191Z,59.84
2023-11-25T11:55:12.289Z,57.29
2023-11-25T11:56:34.688Z,56.25
2023-11-25T11:58:08.195Z,56.86
2023-11-25T11:59:30.712Z,58.36
2023-11-25T12:00:54.992Z,59.83
2023-11-25T12:02:28.480Z,61.08
2023-11-25T12:03:53.031Z,62.52
2023-11-25T12:05:20.552Z,64.39
2023-11-25T12:06:42.873Z,64.08
2023-11-25T12:08:06.890Z,61.59
2023-11-25T12:09:41.378Z,58.63
2023-11-25T12:11:06.898Z,56.22
2023-11-25T12:12:29.480Z,56.11
2023-11-25T12:13:53.459Z,57.42
2023-11-25T12:15:16.701Z,59.24
2023-11-25T12:16:39.070Z,60.52
2023-11-25T12:18:01.716Z,61.86
2023-11-25T12:19:35.905Z,63.10
2023-11-25T12:21:11.442Z,64.46
2023-11-25T12:22:36.619Z,62.72
2023-11-25T12:24:00.657Z,60.25
2023-11-25T12:25:22.524Z,57.56
2023-11-25T12:26:46.954Z,56.07
2023-11-25T12:28:18.653Z,56.90
2023-11-25T12:29:41.086Z,58.23
2023-11-25T12:31:04.844Z,59.60
2023-11-25T12:32:34.786Z,61.04
2023-11-25T12:34:13.175Z,62.34
2023-11-25T12:35:47.338Z,64.38
2023-11-25T12:37:20.662Z,63.80
2023-11-25T12:38:43.398Z,61.28
2023-11-25T12:40:05.985Z,58.82
2023-11-25T12:41:45.398Z,56.33
2023-11-25T12:43:07.345Z,56.34
2023-11-25T12:44:44.597Z,57.79
2023-11-25T12:46:20.952Z,59.61
2023-11-25T12:47:56.722Z,61.29
2023-11-25T12:49:18.643Z,62.86
2023-11-25T12:50:46.122Z,64.56
2023-11-25T12:52:19.597Z,63.80
2023-11-25T12:53:55.629Z,61.00
2023-11-25T12:55:28.901Z,58.27
2023-11-25T12:57:00.519Z,55.85
2023-11-25T12:58:25.078Z,56.37
2023-11-25T12:59:57.189Z,57.73
2023-11-25T13:01:19.134Z,59.26
2023-11-25T13:02:46.327Z,60.79
2023-11-25T13:04:19.693Z,62.27
2023-11-25T13:05:54.005Z,64.33
2023-11-25T13:07:18.411Z,64.50
2023-11-25T13:08:54.688Z,62.25
2023-11-25T13:10:28.389Z,59.16
2023-11-25T13:11:50.723Z,56.22
2023-11-25T13:13:24.306Z,56.14
2023-11-25T13:14:50.789Z,57.32
2023-11-25T13:16:14.087Z,58.80
2023-11-25T13:17:37.271Z,60.15
2023-11-25T13:19:03.989Z,61.70
2023-11-25T13:20:29.284Z,63.38
2023-11-25T13:21:54.060Z,64.91
2023-11-25T13:23:18.279Z,63.91
2023-11-25T13:24:40.658Z,61.63
2023-11-25T13:26:09.892Z,59.21
2023-11-25T13:27:32.055Z,56.73
2023-11-25T13:28:53.965Z,56.53
2023-11-25T13:30:23.129Z,57.67
2023-11-25T13:31:48.156Z,59.04
2023-11-25T13:33:09.986Z,60.44
2023-11-25T13:34:32.287Z,61.74
2023-11-25T13:35:55.885Z,63.13
2023-11-25T13:37:25.263Z,64.76
2023-11-25T13:38:47.212Z,63.96
2023-11-25T13:40:13.401Z,61.63
2023-11-25T13:41:49.564Z,58.93
2023-11-25T13:43:11.384Z,56.08
2023-11-25T13:44:33.363Z,56.05
2023-11-25T13:45:55.694Z,57.42
2023-11-25T13:47:19.836Z,58.74
2023-11-25T13:48:42.447Z,60.28
2023-11-25T13:50:04.966Z,61.62
2023-11-25T13:51:27.073Z,63.16
2023-11-25T13:52:48.850Z,64.57
2023-11-25T13:54:10.875Z,63.65
2023-11-25T13:55:37.713Z,61.47
2023-11-25T13:57:01.798Z,58.82
2023-11-25T13:58:23.799Z,56.43
2023-11-25T13:59:46.211Z,56.35
2023-11-25T14:01:22.253Z,57.78
2023-11-25T14:02:44.856Z,59.40
2023-11-25T14:04:13.974Z,61.02
2023-11-25T14:05:43.011Z,62.86
2023-11-25T14:07:04.954Z,64.82
2023-11-25T14:08:29.864Z,64.30
2023-11-25T14:09:51.880Z,62.10
2023-11-25T14:11:14.582Z,59.68
2023-11-25T14:12:37.325Z,57.19
2023-11-25T14:14:01.663Z,56.01
2023-11-25T14:15:39.139Z,57.16
2023-11-25T14:17:00.871Z,58.73
2023-11-25T14:18:27.682Z,60.36
2023-11-25T14:19:50.361Z,61.90
2023-11-25T14:21:12.006Z,63.88
2023-11-25T14:22:34.948Z,65.07
2023-11-25T14:23:59.134Z,63.79
2023-11-25T14:25:26.045Z,61.39
2023-11-25T14:26:47.769Z,59.08
2023-11-25T14:28:09.547Z,56.88
2023-11-25T14:29:45.916Z,56.73
2023-11-25T14:31:17.260Z,58.29
2023-11-25T14:32:50.012Z,60.04
2023-11-25T14:34:19.035Z,62.16
2023-11-25T14:35:30.226Z,63.74
2023-11-25T14:36:59.423Z,65.10
2023-11-25T14:38:23.682Z,64.00
2023-11-25T14:39:51.405Z,61.70
2023-11-25T14:41:20.426Z,59.27
2023-11-25T14:42:43.058Z,57.04
2023-11-25T14:44:05.360Z,56.76
2023-11-25T14:45:29.900Z,57.86
2023-11-25T14:46:51.710Z,59.44
2023-11-25T14:48:14.458Z,60.94
2023-11-25T14:49:37.078Z,62.59
2023-11-25T14:51:01.274Z,64.73
2023-11-25T14:52:23.015Z,65.07
2023-11-25T14:53:47.253Z,63.33
2023-11-25T14:55:12.801Z,61.07
2023-11-25T14:56:35.099Z,58.90
2023-11-25T14:57:57.580Z,56.95
2023-11-25T14:59:27.724Z,57.27
2023-11-25T15:00:49.179Z,58.76
2023-11-25T15:02:11.132Z,60.46
2023-11-25T15:03:44.248Z,62.61
2023-11-25T15:05:13.549Z,64.71
2023-11-25T15:06:43.343Z,64.93
2023-11-25T15:08:05.366Z,62.86
2023-11-25T15:09:30.665Z,60.45
2023-11-25T15:10:52.880Z,58.08
2023-11-25T15:12:14.519Z,56.75
2023-11-25T15:13:36.985Z,57.32
2023-11-25T15:14:59.562Z,58.87
2023-11-25T15:16:23.860Z,60.69
2023-11-25T15:17:48.787Z,62.58
2023-11-25T15:19:12.742Z,64.88
2023-11-25T15:20:37.259Z,65.32
2023-11-25T15:22:10.812Z,63.65
2023-11-25T15:23:45.304Z,60.91
2023-11-25T15:25:09.568Z,58.33
2023-11-25T15:26:39.185Z,56.61
2023-11-25T15:28:02.556Z,57.02
2023-11-25T15:29:27.128Z,58.63
2023-11-25T15:30:50.889Z,60.33
2023-11-25T15:32:12.741Z,61.97
2023-11-25T15:33:35.048Z,63.94
2023-11-25T15:35:20.186Z,65.33
2023-11-25T15:36:51.698Z,63.60
2023-11-25T15:38:22.655Z,61.09
2023-11-25T15:39:46.419Z,58.98
2023-11-25T15:41:13.983Z,56.96
2023-11-25T15:42:48.582Z,57.18
2023-11-25T15:44:30.131Z,58.91
2023-11-25T15:45:52.323Z,60.95
2023-11-25T15:47:16.610Z,62.63
2023-11-25T15:48:57.971Z,65.09
2023-11-25T15:50:31.978Z,64.72
2023-11-25T15:51:56.017Z,62.59
2023-11-25T15:53:20.040Z,60.40
2023-11-25T15:55:07.555Z,57.85
2023-11-25T15:56:41.767Z,56.97
2023-11-25T15:58:06.324Z,57.95
2023-11-25T15:59:42.783Z,59.66
2023-11-25T16:01:16.013Z,61.20
2023-11-25T16:02:38.335Z,63.12
2023-11-25T16:04:02.454Z,65.03
2023-11-25T16:05:44.164Z,64.47
2023-11-25T16:07:19.403Z,62.11
2023-11-25T16:08:53.210Z,59.17
2023-11-25T16:10:26.878Z,57.07
2023-11-25T16:11:48.938Z,57.02
2023-11-25T16:13:10.495Z,58.27
2023-11-25T16:14:43.289Z,59.95
2023-11-25T16:16:05.412Z,61.70
2023-11-25T16:17:39.668Z,63.47
2023-11-25T16:19:01.586Z,65.24
2023-11-25T16:20:23.214Z,64.28
2023-11-25T16:21:48.018Z,62.04
2023-11-25T16:23:12.081Z,59.60
2023-11-25T16:24:40.158Z,57.31
2023-11-25T16:26:04.390Z,56.88
2023-11-25T16:27:29.682Z,58.09
2023-11-25T16:28:51.389Z,59.77
2023-11-25T16:30:16.086Z,61.36
2023-11-25T16:31:38.436Z,63.11
2023-11-25T16:33:07.896Z,65.06
2023-11-25T16:34:30.135Z,64.41
2023-11-25T16:35:57.029Z,62.25
2023-11-25T16:37:18.522Z,59.93
2023-11-25T16:38:43.070Z,57.38
2023-11-25T16:40:06.756Z,56.39
2023-11-25T16:41:29.867Z,57.32
2023-11-25T16:42:51.217Z,58.68
2023-11-25T16:44:17.998Z,60.28
2023-11-25T16:45:49.282Z,62.03
2023-11-25T16:47:10.790Z,63.86
2023-11-25T16:48:48.754Z,64.96
2023-11-25T16:50:27.590Z,63.23
2023-11-25T16:51:58.936Z,60.60
2023-11-25T16:53:32.548Z,58.14
2023-11-25T16:54:57.383Z,56.59
2023-11-25T16:56:20.924Z,57.43
2023-11-25T16:57:45.043Z,58.94
2023-11-25T16:59:10.331Z,60.57
2023-11-25T17:00:53.137Z,62.37
2023-11-25T17:02:29.648Z,64.97
2023-11-25T17:03:53.683Z,64.23
2023-11-25T17:05:15.652Z,62.10
2023-11-25T17:06:40.318Z,59.77
2023-11-25T17:08:04.147Z,57.39
2023-11-25T17:09:37.782Z,56.78
2023-11-25T17:10:59.234Z,57.91
2023-11-25T17:12:28.812Z,59.67
2023-11-25T17:13:50.321Z,61.29
2023-11-25T17:15:12.196Z,62.96
2023-11-25T17:16:42.445Z,64.97
2023-11-25T17:18:09.583Z,64.60
2023-11-25T17:19:31.963Z,62.41
2023-11-25T17:20:53.570Z,60.13
2023-11-25T17:22:15.775Z,57.78
2023-11-25T17:23:38.476Z,56.62
2023-11-25T17:25:00.377Z,57.42
2023-11-25T17:26:25.273Z,58.89
2023-11-25T17:27:49.962Z,60.64
2023-11-25T17:29:14.999Z,62.52
2023-11-25T17:30:37.485Z,64.80
2023-11-25T17:32:09.593Z,64.96
2023-11-25T17:33:46.102Z,62.84
2023-11-25T17:35:27.513Z,60.12
2023-11-25T17:36:50.525Z,57.55
2023-11-25T17:38:12.597Z,56.69
2023-11-25T17:39:35.267Z,57.66
2023-11-25T17:40:57.276Z,59.10
2023-11-25T17:42:19.156Z,60.67
2023-11-25T17:43:46.149Z,62.37
2023-11-25T17:45:08.289Z,64.50
2023-11-25T17:46:30.754Z,65.09
2023-11-25T17:47:52.400Z,63.41
2023-11-25T17:49:14.561Z,61.05
2023-11-25T17:50:37.294Z,58.93
2023-11-25T17:51:58.870Z,56.99
2023-11-25T17:53:20.683Z,57.18
2023-11-25T17:54:50.231Z,58.65
2023-11-25T17:56:12.181Z,60.25
2023-11-25T17:57:42.001Z,61.88
2023-11-25T17:59:06.130Z,63.90
2023-11-25T18:00:30.778Z,65.19
2023-11-25T18:02:04.350Z,63.82
2023-11-25T18:03:40.655Z,61.04
2023-11-25T18:05:09.936Z,58.93
2023-11-25T18:06:32.694Z,56.87
2023-11-25T18:07:55.029Z,57.19
2023-11-25T18:09:29.831Z,58.48
2023-11-25T18:11:01.737Z,60.53
2023-11-25T18:12:23.545Z,62.31
2023-11-25T18:13:49.314Z,64.59
2023-11-25T18:15:22.787Z,65.32
2023-11-25T18:16:59.173Z,63.51
2023-11-25T18:18:23.375Z,61.26
2023-11-25T18:19:48.039Z,59.21
2023-11-25T18:21:12.545Z,57.24
2023-11-25T18:22:55.755Z,57.14
2023-11-25T18:24:24.861Z,58.78
2023-11-25T18:25:47.717Z,60.54
2023-11-25T18:27:11.785Z,62.29
2023-11-25T18:28:44.060Z,64.51
2023-11-25T18:30:22.230Z,64.98
2023-11-25T18:31:56.327Z,63.14
2023-11-25T18:33:30.913Z,60.35
2023-11-25T18:35:05.359Z,57.80
2023-11-25T18:36:29.748Z,56.89